Погода Новомарьевскаяна неделю

Ставропольский край, Россия

24 - 30 июля
  • 24июля
    Сегодня
    +16°
    +27°
    Ясно и безоблачно
    ВремяПогодаТемператураВлажностьДавлениеВетер, м/сВероятность осадков
    00:00Пасмурно, дождь+19°C93 %722 мм3.0 м/с59 %
    03:00Облачно с прояснениями, ливень+19°C96 %722 мм3.4 м/с44 %
    06:00Облачно с прояснениями+19°C93 %722 мм3.2 м/с27 %
    09:00Практически безоблачно+22°C73 %722 мм4.3 м/с19 %
    12:00Небольшая облачность+25°C52 %722 мм3.9 м/с14 %
    15:00Ясно и безоблачно+26°C47 %721 мм4.8 м/с16 %
    18:00Небольшая облачность+24°C53 %721 мм4.8 м/с30 %
    21:00Ясно и безоблачно+20°C72 %722 мм2.1 м/с9 %
  • 25июля
    Четверг
    +17°
    +29°
    Ясно и безоблачно
    ВремяПогодаТемператураВлажностьДавлениеВетер, м/сВероятность осадков
    00:00Ясно и безоблачно+18°C80 %722 мм1.7 м/с4 %
    03:00Ясно и безоблачно+18°C90 %721 мм1.1 м/с2 %
    06:00Ясно и безоблачно+18°C84 %722 мм1.2 м/с2 %
    09:00Ясно и безоблачно+22°C59 %722 мм2.7 м/с2 %
    12:00Ясно и безоблачно+25°C46 %722 мм2.5 м/с10 %
    15:00Ясно и безоблачно+28°C39 %722 мм3.0 м/с4 %
    18:00Практически безоблачно+26°C36 %722 мм3.1 м/с2 %
    21:00Ясно и безоблачно+21°C48 %722 мм2.1 м/с2 %
  • 26июля
    Пятница
    +17°
    +31°
    Облачно с прояснениями
    ВремяПогодаТемператураВлажностьДавлениеВетер, м/сВероятность осадков
    00:00Ясно и безоблачно+19°C51 %722 мм2.4 м/с2 %
    03:00Ясно и безоблачно+18°C49 %721 мм1.9 м/с2 %
    06:00Ясно и безоблачно+19°C46 %721 мм1.6 м/с2 %
    09:00Облачно с прояснениями+26°C33 %722 мм4.4 м/с2 %
    12:00Облачно с прояснениями+29°C27 %722 мм3.4 м/с2 %
    15:00Облачно с прояснениями+30°C24 %721 мм4.2 м/с3 %
    18:00Облачно с прояснениями+28°C26 %722 мм4.9 м/с9 %
    21:00Облачно с прояснениями+24°C31 %723 мм3.6 м/с13 %
  • 27июля
    Суббота
    +18°
    +28°
    Облачно с прояснениями
    ВремяПогодаТемператураВлажностьДавлениеВетер, м/сВероятность осадков
    00:00Облачно с прояснениями+22°C36 %723 мм2.6 м/с17 %
    03:00Небольшая облачность+20°C43 %723 мм1.4 м/с19 %
    06:00Практически безоблачно+19°C51 %724 мм2.0 м/с18 %
    09:00Ясно и безоблачно+24°C42 %725 мм4.1 м/с19 %
    12:00Небольшая облачность+27°C36 %726 мм4.2 м/с23 %
    15:00Облачно с прояснениями+27°C27 %726 мм4.0 м/с17 %
    18:00Облачно с прояснениями+27°C27 %726 мм3.8 м/с15 %
    21:00Облачно с прояснениями+22°C48 %728 мм3.2 м/с9 %
  • 28июля
    Воскресенье
    +19°
    +31°
    Ясно и безоблачно
    ВремяПогодаТемператураВлажностьДавлениеВетер, м/сВероятность осадков
    00:00Небольшая облачность+20°C59 %728 мм2.1 м/с8 %
    03:00Практически безоблачно+19°C41 %728 мм1.8 м/с5 %
    06:00Небольшая облачность+19°C40 %729 мм1.7 м/с5 %
    09:00Ясно и безоблачно+25°C34 %730 мм2.9 м/с2 %
    12:00Ясно и безоблачно+29°C26 %730 мм2.9 м/с4 %
    15:00Ясно и безоблачно+30°C23 %729 мм4.1 м/с8 %
    18:00Практически безоблачно+28°C22 %729 мм4.1 м/с11 %
    21:00Ясно и безоблачно+23°C28 %729 мм2.4 м/с2 %
Мы используем cookies
Соглашаюсь